sensor_id;sensor_type;location;lat;lon;timestamp;pressure;altitude;pressure_sealevel;temperature
77385;BMP280;66444;49.680;18.538;2023-11-18T00:00:32;97365.00566536012;;;4.974035400524736
77385;BMP280;66444;49.680;18.538;2023-11-18T00:05:44;97361.11620481966;;;4.948567791702226
77385;BMP280;66444;49.680;18.538;2023-11-18T00:10:55;97372.43473439997;;;4.95366132510826
77385;BMP280;66444;49.680;18.538;2023-11-18T00:16:08;97382.1973454129;;;4.948567791702226
77385;BMP280;66444;49.680;18.538;2023-11-18T00:21:21;97383.75348590674;;;4.958754852693528
77385;BMP280;66444;49.680;18.538;2023-11-18T00:26:32;97373.21271503146;;;4.958754852693528
77385;BMP280;66444;49.680;18.538;2023-11-18T00:31:49;97381.59522146116;;;4.979128904826939
77385;BMP280;66444;49.680;18.538;2023-11-18T00:37:01;97384.70738218207;;;4.999502863828093
77385;BMP280;66444;49.680;18.538;2023-11-18T00:42:13;97390.93180838737;;;5.0402505024336275
77385;BMP280;66444;49.680;18.538;2023-11-18T00:47:25;97404.23400437355;;;4.989315895969048
77385;BMP280;66444;49.680;18.538;2023-11-18T00:52:36;97401.72214472569;;;4.938380707427859
77385;BMP280;66444;49.680;18.538;2023-11-18T00:57:48;97397.05271343105;;;4.907819314906374
77385;BMP280;66444;49.680;18.538;2023-11-18T01:03:05;97404.4794189172;;;4.887444936810061
77385;BMP280;66444;49.680;18.538;2023-11-18T01:08:17;97400.409087266;;;4.8263212437275795
77385;BMP280;66444;49.680;18.538;2023-11-18T01:13:28;97399.45141803016;;;4.785571649344638
77385;BMP280;66444;49.680;18.538;2023-11-18T01:18:40;97393.82288061235;;;4.714258962776512
77385;BMP280;66444;49.680;18.538;2023-11-18T01:23:54;97395.61498485671;;;4.6225695465225725
77385;BMP280;66444;49.680;18.538;2023-11-18T01:29:11;97389.75029777526;;;4.653132894821465
77385;BMP280;66444;49.680;18.538;2023-11-18T01:34:23;97389.98347928686;;;4.551254252251238
77385;BMP280;66444;49.680;18.538;2023-11-18T01:39:35;97383.45774296133;;;4.5257842278108
77385;BMP280;66444;49.680;18.538;2023-11-18T01:44:47;97387.35003473479;;;4.551254252251238
77385;BMP280;66444;49.680;18.538;2023-11-18T01:49:59;97387.46516690582;;;4.50031405785121
77385;BMP280;66444;49.680;18.538;2023-11-18T01:55:12;97385.0146530642;;;4.535972255049273
77385;BMP280;66444;49.680;18.538;2023-11-18T02:00:24;97384.12013009757;;;4.581818089494481
77385;BMP280;66444;49.680;18.538;2023-11-18T02:05:36;97386.45536713688;;;4.597099929535761
77385;BMP280;66444;49.680;18.538;2023-11-18T02:10:49;97399.32547614671;;;4.6123817171901464
77385;BMP280;66444;49.680;18.538;2023-11-18T02:16:11;97400.88250642396;;;4.6225695465225725
77385;BMP280;66444;49.680;18.538;2023-11-18T02:21:33;97399.5073722888;;;4.648039017990231
77385;BMP280;66444;49.680;18.538;2023-11-18T02:26:49;97402.4395454972;;;4.632757352571934
77385;BMP280;66444;49.680;18.538;2023-11-18T02:32:03;97403.9965933649;;;4.642945135338232
77385;BMP280;66444;49.680;18.538;2023-11-18T02:37:25;97405.73530646125;;;4.688789869658649
77385;BMP280;66444;49.680;18.538;2023-11-18T02:42:38;97391.6679191794;;;4.734634132497012
77385;BMP280;66444;49.680;18.538;2023-11-18T02:47:51;97399.45141803016;;;4.785571649344638
77385;BMP280;66444;49.680;18.538;2023-11-18T02:53:04;97399.15197877884;;;4.800852790893987
77385;BMP280;66444;49.680;18.538;2023-11-18T02:58:16;97397.29577267976;;;4.805946493102238
77385;BMP280;66444;49.680;18.538;2023-11-18T03:03:28;97404.72035248343;;;4.785571649344638
77385;BMP280;66444;49.680;18.538;2023-11-18T03:08:40;97409.39082913869;;;4.816133880056441
77385;BMP280;66444;49.680;18.538;2023-11-18T03:13:52;97415.25825011954;;;4.785571649344638
77385;BMP280;66444;49.680;18.538;2023-11-18T03:19:04;97425.79618606178;;;4.785571649344638
77385;BMP280;66444;49.680;18.538;2023-11-18T03:24:16;97424.60037076192;;;4.846695901220665
77385;BMP280;66444;49.680;18.538;2023-11-18T03:29:28;97423.40273221621;;;4.907819314906374
77385;BMP280;66444;49.680;18.538;2023-11-18T03:34:40;97419.68954048236;;;4.918006469029933
77385;BMP280;66444;49.680;18.538;2023-11-18T03:39:52;97417.11036209216;;;5.004596339026466
77385;BMP280;66444;49.680;18.538;2023-11-18T03:45:05;97430.58760363722;;;4.989315895969048
77385;BMP280;66444;49.680;18.538;2023-11-18T03:50:18;97423.04332874382;;;4.836508584115654
77385;BMP280;66444;49.680;18.538;2023-11-18T03:55:35;97426.25759181782;;;4.581818089494481
77385;BMP280;66444;49.680;18.538;2023-11-18T04:00:47;97427.66699085696;;;4.418808536091819
77385;BMP280;66444;49.680;18.538;2023-11-18T04:05:59;97436.74853018645;;;4.357678416883573
77385;BMP280;66444;49.680;18.538;2023-11-18T04:11:11;97438.03488349174;;;4.245604354701936
77385;BMP280;66444;49.680;18.538;2023-11-18T04:16:23;97432.1807334787;;;4.276170287420973
77385;BMP280;66444;49.680;18.538;2023-11-18T04:21:35;97445.8266961939;;;4.2965474594850095
77385;BMP280;66444;49.680;18.538;2023-11-18T04:26:52;97450.32793317085;;;4.15390529925935
77385;BMP280;66444;49.680;18.538;2023-11-18T04:32:05;97446.23884473668;;;4.092771547893062
77385;BMP280;66444;49.680;18.538;2023-11-18T04:37:17;97456.37750160995;;;4.021447778586298
77385;BMP280;66444;49.680;18.538;2023-11-18T04:42:29;97456.76220249222;;;3.817659294139594
77385;BMP280;66444;49.680;18.538;2023-11-18T04:47:41;97453.82867935993;;;3.695381733123213
77385;BMP280;66444;49.680;18.538;2023-11-18T04:52:59;97459.37856551417;;;3.6800968022551386
77385;BMP280;66444;49.680;18.538;2023-11-18T04:58:11;97451.10655741916;;;3.7463311243336648
77385;BMP280;66444;49.680;18.538;2023-11-18T05:03:19;97460.46339124614;;;3.8074696254450826
77385;BMP280;66444;49.680;18.538;2023-11-18T05:08:27;97466.80350843671;;;3.9348388106562195
77385;BMP280;66444;49.680;18.538;2023-11-18T05:13:35;97465.24518423733;;;4.062204357888549
77385;BMP280;66444;49.680;18.538;2023-11-18T05:18:43;97472.94138955699;;;4.164094176329672
77385;BMP280;66444;49.680;18.538;2023-11-18T05:23:51;97469.03313949378;;;4.276170287420973
77385;BMP280;66444;49.680;18.538;2023-11-18T05:28:59;97478.38622129701;;;4.3373015242163095
77385;BMP280;66444;49.680;18.538;2023-11-18T05:34:07;97479.9450992529;;;4.347489982191473
77385;BMP280;66444;49.680;18.538;2023-11-18T05:39:16;97484.13668145039;;;4.357678416883573
77385;BMP280;66444;49.680;18.538;2023-11-18T05:44:24;97482.68050565397;;;4.2965474594850095
77385;BMP280;66444;49.680;18.538;2023-11-18T05:49:32;97486.76937923302;;;4.357678416883573
77385;BMP280;66444;49.680;18.538;2023-11-18T05:54:41;97492.62274420164;;;4.32711304295808
77385;BMP280;66444;49.680;18.538;2023-11-18T05:59:54;97485.41435802114;;;4.245604354701936
77385;BMP280;66444;49.680;18.538;2023-11-18T06:05:03;97492.8245772033;;;4.225226949807256
77385;BMP280;66444;49.680;18.538;2023-11-18T06:10:12;97503.93868393831;;;4.194660667842254
77385;BMP280;66444;49.680;18.538;2023-11-18T06:15:19;97499.45440383971;;;4.199755062721669
77385;BMP280;66444;49.680;18.538;2023-11-18T06:20:33;97500.23414462888;;;4.204849451780319
77385;BMP280;66444;49.680;18.538;2023-11-18T06:25:42;97514.36886253416;;;4.245604354701936
77385;BMP280;66444;49.680;18.538;2023-11-18T06:31:01;97529.86992957846;;;4.2608873472549025
77385;BMP280;66444;49.680;18.538;2023-11-18T06:36:16;97533.76969564358;;;4.286358885094524
77385;BMP280;66444;49.680;18.538;2023-11-18T06:41:24;97544.29945138351;;;4.286358885094524
77385;BMP280;66444;49.680;18.538;2023-11-18T06:46:32;97550.14844446382;;;4.25579302222468
77385;BMP280;66444;49.680;18.538;2023-11-18T06:51:46;97558.53379017199;;;4.276170287420973
77385;BMP280;66444;49.680;18.538;2023-11-18T06:56:54;97553.17254414893;;;4.32711304295808
77385;BMP280;66444;49.680;18.538;2023-11-18T07:02:03;97555.60940885781;;;4.428996807802468
77385;BMP280;66444;49.680;18.538;2023-11-18T07:07:13;97563.02127598287;;;4.408620241098106
77385;BMP280;66444;49.680;18.538;2023-11-18T07:12:22;97565.75142442477;;;4.357678416883573
77385;BMP280;66444;49.680;18.538;2023-11-18T07:17:30;97567.21452000026;;;4.418808536091819
77385;BMP280;66444;49.680;18.538;2023-11-18T07:22:40;97565.65426505511;;;4.408620241098106
77385;BMP280;66444;49.680;18.538;2023-11-18T07:27:49;97575.30361884423;;;4.592005988676101
77385;BMP280;66444;49.680;18.538;2023-11-18T07:32:57;97579.19017206847;;;4.755009209085256
77385;BMP280;66444;49.680;18.538;2023-11-18T07:38:05;97596.55733991193;;;4.765196712454781
77385;BMP280;66444;49.680;18.538;2023-11-18T07:43:14;97610.80943775877;;;4.479937817109748
77385;BMP280;66444;49.680;18.538;2023-11-18T07:48:23;97608.2394748299;;;4.15390529925935
77385;BMP280;66444;49.680;18.538;2023-11-18T07:53:32;97623.21864126493;;;4.011258575553074
77385;BMP280;66444;49.680;18.538;2023-11-18T07:58:41;97616.80090385769;;;4.072393444506451
77385;BMP280;66444;49.680;18.538;2023-11-18T08:03:50;97617.20560534869;;;4.143716398905963
77385;BMP280;66444;49.680;18.538;2023-11-18T08:08:58;97624.11784626458;;;4.102960564661771
77385;BMP280;66444;49.680;18.538;2023-11-18T08:14:06;97617.89815596376;;;4.199755062721669
77385;BMP280;66444;49.680;18.538;2023-11-18T08:19:14;97631.26042813316;;;4.235415663896129
77385;BMP280;66444;49.680;18.538;2023-11-18T08:24:23;97633.60296858409;;;4.250698691373691
77385;BMP280;66444;49.680;18.538;2023-11-18T08:29:36;97640.05055293305;;;4.32711304295808
77385;BMP280;66444;49.680;18.538;2023-11-18T08:34:50;97642.19245449029;;;4.306736010592431
77385;BMP280;66444;49.680;18.538;2023-11-18T08:39:58;97648.43952192247;;;4.347489982191473
77385;BMP280;66444;49.680;18.538;2023-11-18T08:45:07;97650.78220878806;;;4.362772625498474
77385;BMP280;66444;49.680;18.538;2023-11-18T08:50:16;97656.8288987367;;;4.367866828292608
77385;BMP280;66444;49.680;18.538;2023-11-18T08:55:25;97667.44829713697;;;4.316924538416788
77385;BMP280;66444;49.680;18.538;2023-11-18T09:00:34;97663.45534885635;;;4.342395756114274
77385;BMP280;66444;49.680;18.538;2023-11-18T09:05:43;97656.8288987367;;;4.367866828292608
77385;BMP280;66444;49.680;18.538;2023-11-18T09:10:53;97660.53271890178;;;4.357678416883573
77385;BMP280;66444;49.680;18.538;2023-11-18T09:16:02;97677.40048698272;;;4.347489982191473
77385;BMP280;66444;49.680;18.538;2023-11-18T09:21:11;97682.08737722307;;;4.378055216418579
77385;BMP280;66444;49.680;18.538;2023-11-18T09:26:20;97679.85738616325;;;4.449373281374574
77385;BMP280;66444;49.680;18.538;2023-11-18T09:31:28;97677.33405251408;;;4.535972255049273
77385;BMP280;66444;49.680;18.538;2023-11-18T09:36:37;97679.0952244124;;;4.581818089494481
77385;BMP280;66444;49.680;18.538;2023-11-18T09:41:46;97683.1985478151;;;4.642945135338232
77385;BMP280;66444;49.680;18.538;2023-11-18T09:46:57;97691.59068599746;;;4.663320631021634
77385;BMP280;66444;49.680;18.538;2023-11-18T09:52:08;97688.64970111796;;;4.541066259937361
77385;BMP280;66444;49.680;18.538;2023-11-18T09:57:26;97687.08757134635;;;4.530878244340419
77385;BMP280;66444;49.680;18.538;2023-11-18T10:02:39;97699.38489340714;;;4.576724131172523
77385;BMP280;66444;49.680;18.538;2023-11-18T10:07:48;97695.96995382952;;;4.571630167029798
77385;BMP280;66444;49.680;18.538;2023-11-18T10:12:57;97687.66822325237;;;4.50031405785121
77385;BMP280;66444;49.680;18.538;2023-11-18T10:18:06;97697.97067173303;;;4.32711304295808
77385;BMP280;66444;49.680;18.538;2023-11-18T10:23:16;97697.39294797147;;;4.357678416883573
77385;BMP280;66444;49.680;18.538;2023-11-18T10:28:26;97705.78415191952;;;4.378055216418579
77385;BMP280;66444;49.680;18.538;2023-11-18T10:33:36;97700.80716807726;;;4.362772625498474
77385;BMP280;66444;49.680;18.538;2023-11-18T10:38:47;97709.07847063396;;;4.2965474594850095
77385;BMP280;66444;49.680;18.538;2023-11-18T10:44:05;97719.19688797656;;;4.225226949807256
77385;BMP280;66444;49.680;18.538;2023-11-18T10:49:15;97720.13819206404;;;4.1284330047201365
77385;BMP280;66444;49.680;18.538;2023-11-18T10:54:24;97720.55332187726;;;4.199755062721669
77385;BMP280;66444;49.680;18.538;2023-11-18T10:59:33;97725.44983877623;;;4.265981666464358
77385;BMP280;66444;49.680;18.538;2023-11-18T11:04:42;97729.56395147608;;;4.32711304295808
77385;BMP280;66444;49.680;18.538;2023-11-18T11:09:56;97737.38015277321;;;4.378055216418579
77385;BMP280;66444;49.680;18.538;2023-11-18T11:15:07;97736.80368383008;;;4.408620241098106
77385;BMP280;66444;49.680;18.538;2023-11-18T11:20:21;97748.89966992034;;;4.418808536091819
77385;BMP280;66444;49.680;18.538;2023-11-18T11:25:42;97744.37207671658;;;4.286358885094524
77385;BMP280;66444;49.680;18.538;2023-11-18T11:31:01;97746.09387490839;;;4.194660667842254
77385;BMP280;66444;49.680;18.538;2023-11-18T11:36:20;97758.33895253284;;;4.102960564661771
77385;BMP280;66444;49.680;18.538;2023-11-18T11:41:33;97765.16685780411;;;4.113149558147415
77385;BMP280;66444;49.680;18.538;2023-11-18T11:46:42;97785.15473062101;;;4.123338528349995
77385;BMP280;66444;49.680;18.538;2023-11-18T11:52:00;97779.3938074657;;;4.102960564661771
77385;BMP280;66444;49.680;18.538;2023-11-18T11:57:12;97787.21628644265;;;4.15390529925935
77385;BMP280;66444;49.680;18.538;2023-11-18T12:02:21;97795.6825877659;;;4.123338528349995
77385;BMP280;66444;49.680;18.538;2023-11-18T12:07:31;97794.25670802772;;;4.199755062721669
77385;BMP280;66444;49.680;18.538;2023-11-18T12:12:40;97805.71259112254;;;4.102960564661771
77385;BMP280;66444;49.680;18.538;2023-11-18T12:18:21;97799.45295455541;;;4.062204357888549
77385;BMP280;66444;49.680;18.538;2023-11-18T12:23:29;97791.27321289234;;;4.077487979084253
77385;BMP280;66444;49.680;18.538;2023-11-18T12:28:38;97811.97237045217;;;4.143716398905963
77385;BMP280;66444;49.680;18.538;2023-11-18T12:33:59;97815.312046058;;;4.011258575553074
77385;BMP280;66444;49.680;18.538;2023-11-18T12:39:38;97824.4694327747;;;3.848228160524741
77385;BMP280;66444;49.680;18.538;2023-11-18T12:45:20;97847.20433601108;;;3.756520932726562
77385;BMP280;66444;49.680;18.538;2023-11-18T12:50:54;97861.98148898705;;;3.715761559456587
77385;BMP280;66444;49.680;18.538;2023-11-18T12:56:03;97861.98148898705;;;3.715761559456587
77385;BMP280;66444;49.680;18.538;2023-11-18T13:01:12;97871.43903865498;;;3.725951437698677
77385;BMP280;66444;49.680;18.538;2023-11-18T13:06:21;97874.29215547377;;;3.7616158281918617
77385;BMP280;66444;49.680;18.538;2023-11-18T13:11:30;97879.77570588194;;;3.7972799334675074
77385;BMP280;66444;49.680;18.538;2023-11-18T13:16:38;97892.3099484171;;;3.8787968173623084
77385;BMP280;66444;49.680;18.538;2023-11-18T13:21:47;97886.82614663156;;;3.843133364012465
77385;BMP280;66444;49.680;18.538;2023-11-18T13:26:57;97886.60382968378;;;3.8074696254450826
77385;BMP280;66444;49.680;18.538;2023-11-18T13:32:09;97893.99257516534;;;3.7870902182068678
77385;BMP280;66444;49.680;18.538;2023-11-18T13:37:19;97898.69363808127;;;3.817659294139594
77385;BMP280;66444;49.680;18.538;2023-11-18T13:42:27;97898.13302504839;;;3.848228160524741
77385;BMP280;66444;49.680;18.538;2023-11-18T13:47:36;97911.17185205223;;;3.9501228684093803
77385;BMP280;66444;49.680;18.538;2023-11-18T13:52:45;97916.59667606578;;;4.036731539480388
77385;BMP280;66444;49.680;18.538;2023-11-18T13:57:54;97918.8860828687;;;4.102960564661771
77385;BMP280;66444;49.680;18.538;2023-11-18T14:03:05;97926.21888460671;;;4.133527475269512
77385;BMP280;66444;49.680;18.538;2023-11-18T14:08:17;97925.09114539609;;;4.194660667842254
77385;BMP280;66444;49.680;18.538;2023-11-18T14:13:26;97917.12968175249;;;4.245604354701936
77385;BMP280;66444;49.680;18.538;2023-11-18T14:18:34;97914.43144817055;;;4.2965474594850095
77385;BMP280;66444;49.680;18.538;2023-11-18T14:23:43;97918.91382766099;;;4.291453175200149
77385;BMP280;66444;49.680;18.538;2023-11-18T14:28:52;97929.22690648338;;;4.25579302222468
77385;BMP280;66444;49.680;18.538;2023-11-18T14:34:05;97930.35593826394;;;4.194660667842254
77385;BMP280;66444;49.680;18.538;2023-11-18T14:39:14;97939.82019808529;;;4.204849451780319
77385;BMP280;66444;49.680;18.538;2023-11-18T14:44:22;97946.15037421558;;;4.194660667842254
77385;BMP280;66444;49.680;18.538;2023-11-18T14:49:36;97936.74742962274;;;4.133527475269512
77385;BMP280;66444;49.680;18.538;2023-11-18T14:54:45;97940.5041809457;;;4.072393444506451
77385;BMP280;66444;49.680;18.538;2023-11-18T14:59:54;97935.86060163881;;;3.990880099637434
77385;BMP280;66444;49.680;18.538;2023-11-18T15:05:02;97942.803662827;;;3.899175805505365
77385;BMP280;66444;49.680;18.538;2023-11-18T15:10:12;97952.31890445802;;;3.8584177360869942
77385;BMP280;66444;49.680;18.538;2023-11-18T15:15:21;97954.89606284325;;;3.9093652646522967
77385;BMP280;66444;49.680;18.538;2023-11-18T15:20:30;97962.78964674509;;;3.9093652646522967
77385;BMP280;66444;49.680;18.538;2023-11-18T15:25:41;97958.03176235236;;;3.9297441130969673
77385;BMP280;66444;49.680;18.538;2023-11-18T15:30:50;97962.28481972589;;;3.888986323075369
77385;BMP280;66444;49.680;18.538;2023-11-18T15:35:59;97968.10476190627;;;3.8584177360869942
77385;BMP280;66444;49.680;18.538;2023-11-18T15:41:10;97968.55690846487;;;3.9297441130969673
77385;BMP280;66444;49.680;18.538;2023-11-18T15:46:24;97977.46061458999;;;3.970501530589536
77385;BMP280;66444;49.680;18.538;2023-11-18T15:51:34;97972.70218852768;;;3.990880099637434
77385;BMP280;66444;49.680;18.538;2023-11-18T15:56:44;97973.15094497839;;;4.062204357888549
77385;BMP280;66444;49.680;18.538;2023-11-18T16:01:53;97973.93488832207;;;4.067298904107884
77385;BMP280;66444;49.680;18.538;2023-11-18T16:07:02;97972.14285381691;;;4.021447778586298
77385;BMP280;66444;49.680;18.538;2023-11-18T16:12:11;97967.66340420523;;;4.026542371371761
77385;BMP280;66444;49.680;18.538;2023-11-18T16:17:20;97966.31942737816;;;4.052015247987583
77385;BMP280;66444;49.680;18.538;2023-11-18T16:22:33;97980.76665566284;;;4.077487979084253
77385;BMP280;66444;49.680;18.538;2023-11-18T16:27:42;97986.81457992224;;;4.082582507841289
77385;BMP280;66444;49.680;18.538;2023-11-18T16:32:51;97985.52625310821;;;4.05710980584845
77385;BMP280;66444;49.680;18.538;2023-11-18T16:38:00;97986.81457992224;;;4.082582507841289
77385;BMP280;66444;49.680;18.538;2023-11-18T16:43:09;97984.2377578386;;;4.031636958336458
77385;BMP280;66444;49.680;18.538;2023-11-18T16:48:18;97982.16501891571;;;4.001069349236786
77385;BMP280;66444;49.680;18.538;2023-11-18T16:53:27;97981.10151629643;;;4.011258575553074
77385;BMP280;66444;49.680;18.538;2023-11-18T16:58:35;97989.50125226082;;;4.031636958336458
77385;BMP280;66444;49.680;18.538;2023-11-18T17:03:44;97990.51034833674;;;4.072393444506451
77385;BMP280;66444;49.680;18.538;2023-11-18T17:08:54;98006.80681186287;;;4.092771547893062
77385;BMP280;66444;49.680;18.538;2023-11-18T17:14:05;98015.71273564588;;;4.133527475269512
77385;BMP280;66444;49.680;18.538;2023-11-18T17:19:14;98014.59392403967;;;4.194660667842254
77385;BMP280;66444;49.680;18.538;2023-11-18T17:24:23;98024.61916767908;;;4.17428303011693
77385;BMP280;66444;49.680;18.538;2023-11-18T17:29:32;98018.62430285978;;;4.118244046159089
77385;BMP280;66444;49.680;18.538;2023-11-18T17:34:41;98017.33494653564;;;4.092771547893062
77385;BMP280;66444;49.680;18.538;2023-11-18T17:39:50;98020.75130577464;;;4.097866059187799
77385;BMP280;66444;49.680;18.538;2023-11-18T17:44:58;98013.58513407625;;;4.15390529925935
77385;BMP280;66444;49.680;18.538;2023-11-18T17:50:07;98016.72198887223;;;4.17428303011693
77385;BMP280;66444;49.680;18.538;2023-11-18T17:55:17;98022.9958056284;;;4.21503821243532
77385;BMP280;66444;49.680;18.538;2023-11-18T18:00:25;98033.97532850948;;;4.286358885094524
77385;BMP280;66444;49.680;18.538;2023-11-18T18:05:35;98023.10560224207;;;4.352584202447906
77385;BMP280;66444;49.680;18.538;2023-11-18T18:10:49;98011.56679511;;;4.311830277414993
77385;BMP280;66444;49.680;18.538;2023-11-18T18:15:58;97998.6830305009;;;4.2965474594850095
77385;BMP280;66444;49.680;18.538;2023-11-18T18:21:12;97981.31804062026;;;4.286358885094524
77385;BMP280;66444;49.680;18.538;2023-11-18T18:26:21;97960.25539316941;;;4.286358885094524
77385;BMP280;66444;49.680;18.538;2023-11-18T18:31:31;97956.55693337713;;;4.2965474594850095
77385;BMP280;66444;49.680;18.538;2023-11-18T18:36:39;97946.5899786232;;;4.265981666464358
77385;BMP280;66444;49.680;18.538;2023-11-18T18:41:48;97953.98640671905;;;4.245604354701936
77385;BMP280;66444;49.680;18.538;2023-11-18T18:46:57;97969.27987011269;;;4.225226949807256
77385;BMP280;66444;49.680;18.538;2023-11-18T18:52:06;97981.37786739996;;;4.235415663896129
77385;BMP280;66444;49.680;18.538;2023-11-18T18:57:14;97981.31804062026;;;4.286358885094524
77385;BMP280;66444;49.680;18.538;2023-11-18T19:02:23;97959.25169138127;;;4.245604354701936
77385;BMP280;66444;49.680;18.538;2023-11-18T19:07:32;97953.48451739002;;;4.225226949807256
77385;BMP280;66444;49.680;18.538;2023-11-18T19:12:40;97968.89438156552;;;4.102960564661771
77385;BMP280;66444;49.680;18.538;2023-11-18T19:17:50;97967.32664723064;;;4.092771547893062
77385;BMP280;66444;49.680;18.538;2023-11-18T19:23:04;97959.15002682953;;;4.108055064314977
77385;BMP280;66444;49.680;18.538;2023-11-18T19:28:13;97952.65699191642;;;4.031636958336458
77385;BMP280;66444;49.680;18.538;2023-11-18T19:33:22;97946.38672156316;;;3.990880099637434
77385;BMP280;66444;49.680;18.538;2023-11-18T19:38:31;97922.20016408144;;;3.970501530589536
77385;BMP280;66444;49.680;18.538;2023-11-18T19:43:39;97905.18448396132;;;3.89408106720075
77385;BMP280;66444;49.680;18.538;2023-11-18T19:48:48;97911.17337075975;;;3.7106666116043927
77385;BMP280;66444;49.680;18.538;2023-11-18T19:53:57;97921.97338659935;;;3.695381733123213
77385;BMP280;66444;49.680;18.538;2023-11-18T19:59:16;97913.01992582968;;;3.705571657931432
77385;BMP280;66444;49.680;18.538;2023-11-18T20:04:30;97920.85743679291;;;3.756520932726562
77385;BMP280;66444;49.680;18.538;2023-11-18T20:09:41;97930.36937243021;;;3.715761559456587
77385;BMP280;66444;49.680;18.538;2023-11-18T20:14:50;97944.02663070973;;;3.7361412926577033
77385;BMP280;66444;49.680;18.538;2023-11-18T20:19:58;97927.46022399302;;;3.731046368088573
77385;BMP280;66444;49.680;18.538;2023-11-18T20:25:08;97937.19790160785;;;3.725951437698677
77385;BMP280;66444;49.680;18.538;2023-11-18T20:30:22;97935.63004565012;;;3.715761559456587
77385;BMP280;66444;49.680;18.538;2023-11-18T20:35:32;97928.57480524355;;;3.6699068192392588
77385;BMP280;66444;49.680;18.538;2023-11-18T20:40:41;97901.03775033522;;;3.593481204472482
77385;BMP280;66444;49.680;18.538;2023-11-18T20:45:50;97876.97027638355;;;3.471197496727109
77385;BMP280;66444;49.680;18.538;2023-11-18T20:50:59;97900.26914343744;;;3.297956504812464
77385;BMP280;66444;49.680;18.538;2023-11-18T20:56:11;97888.32156244738;;;3.134900012752041
77385;BMP280;66444;49.680;18.538;2023-11-18T21:01:29;97883.15078253306;;;3.0329866784159094
77385;BMP280;66444;49.680;18.538;2023-11-18T21:06:42;97868.01910760083;;;2.9004958629608155
77385;BMP280;66444;49.680;18.538;2023-11-18T21:11:56;97863.11753665624;;;2.783289169287309
77385;BMP280;66444;49.680;18.538;2023-11-18T21:17:09;97863.4635195745;;;2.6660793964285405
77385;BMP280;66444;49.680;18.538;2023-11-18T21:22:22;97854.3592790874;;;2.538673976948485
77385;BMP280;66444;49.680;18.538;2023-11-18T21:27:36;97847.84532316627;;;2.462228979030624
77385;BMP280;66444;49.680;18.538;2023-11-18T21:32:49;97846.3380858116;;;2.3501072796992957
77385;BMP280;66444;49.680;18.538;2023-11-18T21:38:08;97840.84763694232;;;2.3144316027406604
77385;BMP280;66444;49.680;18.538;2023-11-18T21:43:26;97833.75927533605;;;2.3195281454827636
77385;BMP280;66444;49.680;18.538;2023-11-18T21:48:39;97835.35730108614;;;2.278755640564486
77385;BMP280;66444;49.680;18.538;2023-11-18T21:53:53;97856.37644056194;;;2.2277894855476914
77385;BMP280;66444;49.680;18.538;2023-11-18T21:59:06;97838.55059746887;;;2.1972095131408422
77385;BMP280;66444;49.680;18.538;2023-11-18T22:04:20;97853.26357201031;;;2.1564358906354757
77385;BMP280;66444;49.680;18.538;2023-11-18T22:09:43;97853.75258503314;;;2.2277894855476914
77385;BMP280;66444;49.680;18.538;2023-11-18T22:15:03;97845.31168726142;;;2.309335054177791
77385;BMP280;66444;49.680;18.538;2023-11-18T22:20:20;97831.67775675213;;;2.2889488017186523
77385;BMP280;66444;49.680;18.538;2023-11-18T22:25:34;97821.72416994149;;;2.2583692484069617
77385;BMP280;66444;49.680;18.538;2023-11-18T22:30:59;97814.9656155924;;;2.146242426801473
77385;BMP280;66444;49.680;18.538;2023-11-18T22:36:17;97807.66387900732;;;2.064693877939135